Dakota S — WDC7687 — position and weather

sailwx.info

Track history (hours):
 
Tides and Currents Weather Stations Pressure Air Temp Water Temp Dewpoint Dewpoint Depression Visibility Wind Speed Wind Dir Waves Ship Positions

Dakota S

Owner: D&S Marine Service,LLC. Dakota S., Gray, LA. More information available from US FCC via Universal Licensing System and Coast Guard Vessel Documentation Center.

Last reported at 2018-Feb-19 20:22 UTC. Time now 2018-Feb-22 03:15 UTC.
Position N 27°50' W 097°05'.

Length 86 m; draft 2.4 m.

Type: . MMSI: 367075190.

Date/timePositionNaut miles runAvg speedWind from/ knotsBaromVisibWave heightAir tempDewpointWater temp
2018-Feb-19 20:22N 27°50' W 097°05'2 5.1
2018-Feb-19 20:00N 27°51' W 097°03'2 3.8
2018-Feb-19 19:28N 27°53' W 097°03'4 5.2
2018-Feb-19 18:40N 27°57' W 097°03'1 4.7
2018-Feb-19 18:30N 27°58' W 097°03'2 4.8
2018-Feb-19 17:59N 28°00' W 097°02'2 5.0
2018-Feb-19 17:30N 28°02' W 096°60'2 4.9
2018-Feb-19 16:59N 28°04' W 096°58'3 4.9
2018-Feb-19 16:26N 28°06' W 096°56'2 4.5
2018-Feb-19 15:58N 28°08' W 096°55'1 3.0
2018-Feb-19 15:29N 28°09' W 096°54'2 4.3
2018-Feb-19 15:00N 28°10' W 096°52'3 4.5
2018-Feb-19 14:18N 28°12' W 096°49'1 4.4
2018-Feb-19 13:58N 28°13' W 096°48'9 4.9
2018-Feb-19 12:01N 28°19' W 096°40'0 3.6
2018-Feb-19 11:55N 28°19' W 096°39'2 4.5
2018-Feb-19 11:28N 28°20' W 096°37'2 4.6
2018-Feb-19 10:58N 28°22' W 096°35'2 3.1
2018-Feb-19 10:22N 28°23' W 096°33'2 4.8
2018-Feb-19 09:57N 28°23' W 096°31'4 4.9
2018-Feb-19 09:12N 28°25' W 096°27'2 5.1
2018-Feb-19 08:46N 28°26' W 096°25'6 2.6
2018-Feb-19 06:32N 28°32' W 096°28'1 5.6
2018-Feb-19 06:25N 28°32' W 096°28'4 5.2
2018-Feb-19 05:42N 28°34' W 096°32'2 5.1
2018-Feb-19 05:22N 28°35' W 096°33'2 5.0
2018-Feb-19 05:00N 28°37' W 096°34'2 0.6
2018-Feb-19 02:21N 28°39' W 096°33'0 0.0
2018-Feb-19 01:59N 28°39' W 096°33'0 0.0
2018-Feb-19 01:28N 28°39' W 096°33'0 0.0
2018-Feb-19 00:56N 28°39' W 096°33'0 0.0
2018-Feb-19 00:30N 28°39' W 096°33'0 0.0
2018-Feb-18 23:58N 28°39' W 096°33'0 0.0
2018-Feb-18 23:29N 28°39' W 096°33'0 0.0
2018-Feb-18 22:59N 28°39' W 096°33'0 0.0
2018-Feb-18 22:17N 28°39' W 096°33'0 0.0
2018-Feb-18 22:00N 28°39' W 096°33'8 0.6
2018-Feb-18 09:08N 28°32' W 096°28'2 6.0
2018-Feb-18 08:52N 28°31' W 096°27'4 6.2
2018-Feb-18 08:16N 28°28' W 096°23'5 2.4
2018-Feb-18 06:18N 28°25' W 096°27'0 0.0
2018-Feb-18 05:46N 28°25' W 096°27'0 0.0
2018-Feb-18 05:05N 28°25' W 096°27'0 0.5
2018-Feb-18 05:00N 28°25' W 096°27'0 0.2
2018-Feb-18 04:22N 28°25' W 096°27'13 0.6
2018-Feb-17 05:33N 28°19' W 096°40'0 0.0
2018-Feb-17 05:22N 28°19' W 096°40'0 0.0
2018-Feb-17 01:42N 28°19' W 096°40'1 2.6
2018-Feb-17 01:29N 28°19' W 096°40'3 5.9
2018-Feb-17 00:58N 28°17' W 096°43'3 6.7
2018-Feb-17 00:30N 28°15' W 096°46'3 5.9
2018-Feb-16 23:59N 28°13' W 096°49'3 5.0
2018-Feb-16 23:29N 28°11' W 096°51'3 5.3
2018-Feb-16 22:59N 28°10' W 096°53'2 5.2
2018-Feb-16 22:30N 28°08' W 096°55'1 1.0
2018-Feb-16 21:59N 28°07' W 096°55'0 0.0
2018-Feb-16 21:30N 28°07' W 096°55'0 0.0
2018-Feb-16 21:00N 28°07' W 096°55'0 0.0
2018-Feb-16 20:28N 28°07' W 096°55'0 0.0
2018-Feb-16 20:00N 28°07' W 096°55'0 0.0
2018-Feb-16 19:29N 28°07' W 096°55'0 0.0
2018-Feb-16 19:00N 28°07' W 096°55'0 0.0
2018-Feb-16 18:30N 28°07' W 096°55'0 0.0
2018-Feb-16 17:59N 28°07' W 096°55'0 0.0
2018-Feb-16 17:30N 28°07' W 096°55'0 0.0
2018-Feb-16 16:59N 28°07' W 096°55'0 0.0
2018-Feb-16 16:25N 28°07' W 096°55'1 1.3
2018-Feb-16 15:59N 28°07' W 096°56'3 5.7
2018-Feb-16 15:30N 28°05' W 096°58'3 5.8
2018-Feb-16 15:00N 28°02' W 096°60'3 5.9
2018-Feb-16 14:29N 28°00' W 097°02'3 5.7
2018-Feb-16 13:59N 27°58' W 097°03'3 5.3
2018-Feb-16 13:30N 27°55' W 097°03'3 5.0
2018-Feb-16 12:59N 27°53' W 097°03'2 4.5
2018-Feb-16 12:29N 27°51' W 097°04'4 7.4
2018-Feb-16 12:00N 27°50' W 097°08'3 6.6
2018-Feb-16 11:29N 27°49' W 097°12'12 1.4
2018-Feb-16 03:03N 27°49' W 097°25'0 0.1
2018-Feb-16 02:59N 27°49' W 097°25'0 0.0
2018-Feb-16 02:30N 27°49' W 097°25'0 0.0
2018-Feb-16 01:51N 27°49' W 097°25'0 0.0
2018-Feb-16 01:27N 27°49' W 097°25'0 0.0
2018-Feb-16 00:58N 27°49' W 097°25'0 0.0
2018-Feb-16 00:30N 27°49' W 097°25'0 0.0
2018-Feb-15 23:35N 27°49' W 097°25'0 0.0
2018-Feb-15 23:30N 27°49' W 097°25'0 0.0
2018-Feb-15 23:00N 27°49' W 097°25'4 0.2
2018-Feb-15 01:32N 27°50' W 097°30'0 0.0
2018-Feb-14 07:54N 27°50' W 097°30'0 0.0
2018-Feb-14 07:30N 27°50' W 097°30'0 0.0
2018-Feb-14 07:00N 27°50' W 097°30'0 0.0
2018-Feb-14 05:15N 27°50' W 097°30'0 0.0
2018-Feb-14 04:21N 27°50' W 097°30'0 0.0
2018-Feb-13 18:42N 27°50' W 097°30'0 0.0
2018-Feb-13 17:18N 27°50' W 097°30'0 0.0
2018-Feb-13 16:54N 27°50' W 097°30'0 0.0
2018-Feb-12 19:07N 27°50' W 097°30'0 0.0
2018-Feb-12 16:52N 27°50' W 097°30'0 0.0
2018-Feb-12 16:22N 27°50' W 097°30'0 0.0
2018-Feb-12 15:53N 27°50' W 097°30'0 0.1
2018-Feb-12 14:39N 27°50' W 097°30'0 0.0
2018-Feb-12 14:30N 27°50' W 097°30'  
Track history (hours):
 
Tides and Currents Weather Stations Pressure Air Temp Water Temp Dewpoint Dewpoint Depression Visibility Wind Speed Wind Dir Waves Ship Positions

Dakota S

Owner: D&S Marine Service,LLC. Dakota S., Gray, LA. More information available from US FCC via Universal Licensing System and Coast Guard Vessel Documentation Center.

Last reported at 2018-Feb-19 20:22 UTC. Time now 2018-Feb-22 03:15 UTC.
Position N 27°50' W 097°05'.

Length 86 m; draft 2.4 m.

Type: . MMSI: 367075190.

Date/timePositionNaut miles runAvg speedWind from/ knotsBaromVisibWave heightAir tempDewpointWater temp
2018-Feb-19 20:22N 27°50' W 097°05'2 5.1
2018-Feb-19 20:00N 27°51' W 097°03'2 3.8
2018-Feb-19 19:28N 27°53' W 097°03'4 5.2
2018-Feb-19 18:40N 27°57' W 097°03'1 4.7
2018-Feb-19 18:30N 27°58' W 097°03'2 4.8
2018-Feb-19 17:59N 28°00' W 097°02'2 5.0
2018-Feb-19 17:30N 28°02' W 096°60'2 4.9
2018-Feb-19 16:59N 28°04' W 096°58'3 4.9
2018-Feb-19 16:26N 28°06' W 096°56'2 4.5
2018-Feb-19 15:58N 28°08' W 096°55'1 3.0
2018-Feb-19 15:29N 28°09' W 096°54'2 4.3
2018-Feb-19 15:00N 28°10' W 096°52'3 4.5
2018-Feb-19 14:18N 28°12' W 096°49'1 4.4
2018-Feb-19 13:58N 28°13' W 096°48'9 4.9
2018-Feb-19 12:01N 28°19' W 096°40'0 3.6
2018-Feb-19 11:55N 28°19' W 096°39'2 4.5
2018-Feb-19 11:28N 28°20' W 096°37'2 4.6
2018-Feb-19 10:58N 28°22' W 096°35'2 3.1
2018-Feb-19 10:22N 28°23' W 096°33'2 4.8
2018-Feb-19 09:57N 28°23' W 096°31'4 4.9
2018-Feb-19 09:12N 28°25' W 096°27'2 5.1
2018-Feb-19 08:46N 28°26' W 096°25'6 2.6
2018-Feb-19 06:32N 28°32' W 096°28'1 5.6
2018-Feb-19 06:25N 28°32' W 096°28'4 5.2
2018-Feb-19 05:42N 28°34' W 096°32'2 5.1
2018-Feb-19 05:22N 28°35' W 096°33'2 5.0
2018-Feb-19 05:00N 28°37' W 096°34'2 0.6
2018-Feb-19 02:21N 28°39' W 096°33'0 0.0
2018-Feb-19 01:59N 28°39' W 096°33'0 0.0
2018-Feb-19 01:28N 28°39' W 096°33'0 0.0
2018-Feb-19 00:56N 28°39' W 096°33'0 0.0
2018-Feb-19 00:30N 28°39' W 096°33'0 0.0
2018-Feb-18 23:58N 28°39' W 096°33'0 0.0
2018-Feb-18 23:29N 28°39' W 096°33'0 0.0
2018-Feb-18 22:59N 28°39' W 096°33'0 0.0
2018-Feb-18 22:17N 28°39' W 096°33'0 0.0
2018-Feb-18 22:00N 28°39' W 096°33'8 0.6
2018-Feb-18 09:08N 28°32' W 096°28'2 6.0
2018-Feb-18 08:52N 28°31' W 096°27'4 6.2
2018-Feb-18 08:16N 28°28' W 096°23'5 2.4
2018-Feb-18 06:18N 28°25' W 096°27'0 0.0
2018-Feb-18 05:46N 28°25' W 096°27'0 0.0
2018-Feb-18 05:05N 28°25' W 096°27'0 0.5
2018-Feb-18 05:00N 28°25' W 096°27'0 0.2
2018-Feb-18 04:22N 28°25' W 096°27'13 0.6
2018-Feb-17 05:33N 28°19' W 096°40'0 0.0
2018-Feb-17 05:22N 28°19' W 096°40'0 0.0
2018-Feb-17 01:42N 28°19' W 096°40'1 2.6
2018-Feb-17 01:29N 28°19' W 096°40'3 5.9
2018-Feb-17 00:58N 28°17' W 096°43'3 6.7
2018-Feb-17 00:30N 28°15' W 096°46'3 5.9
2018-Feb-16 23:59N 28°13' W 096°49'3 5.0
2018-Feb-16 23:29N 28°11' W 096°51'3 5.3
2018-Feb-16 22:59N 28°10' W 096°53'2 5.2
2018-Feb-16 22:30N 28°08' W 096°55'1 1.0
2018-Feb-16 21:59N 28°07' W 096°55'0 0.0
2018-Feb-16 21:30N 28°07' W 096°55'0 0.0
2018-Feb-16 21:00N 28°07' W 096°55'0 0.0
2018-Feb-16 20:28N 28°07' W 096°55'0 0.0
2018-Feb-16 20:00N 28°07' W 096°55'0 0.0
2018-Feb-16 19:29N 28°07' W 096°55'0 0.0
2018-Feb-16 19:00N 28°07' W 096°55'0 0.0
2018-Feb-16 18:30N 28°07' W 096°55'0 0.0
2018-Feb-16 17:59N 28°07' W 096°55'0 0.0
2018-Feb-16 17:30N 28°07' W 096°55'0 0.0
2018-Feb-16 16:59N 28°07' W 096°55'0 0.0
2018-Feb-16 16:25N 28°07' W 096°55'1 1.3
2018-Feb-16 15:59N 28°07' W 096°56'3 5.7
2018-Feb-16 15:30N 28°05' W 096°58'3 5.8
2018-Feb-16 15:00N 28°02' W 096°60'3 5.9
2018-Feb-16 14:29N 28°00' W 097°02'3 5.7
2018-Feb-16 13:59N 27°58' W 097°03'3 5.3
2018-Feb-16 13:30N 27°55' W 097°03'3 5.0
2018-Feb-16 12:59N 27°53' W 097°03'2 4.5
2018-Feb-16 12:29N 27°51' W 097°04'4 7.4
2018-Feb-16 12:00N 27°50' W 097°08'3 6.6
2018-Feb-16 11:29N 27°49' W 097°12'12 1.4
2018-Feb-16 03:03N 27°49' W 097°25'0 0.1
2018-Feb-16 02:59N 27°49' W 097°25'0 0.0
2018-Feb-16 02:30N 27°49' W 097°25'0 0.0
2018-Feb-16 01:51N 27°49' W 097°25'0 0.0
2018-Feb-16 01:27N 27°49' W 097°25'0 0.0
2018-Feb-16 00:58N 27°49' W 097°25'0 0.0
2018-Feb-16 00:30N 27°49' W 097°25'0 0.0
2018-Feb-15 23:35N 27°49' W 097°25'0 0.0
2018-Feb-15 23:30N 27°49' W 097°25'0 0.0
2018-Feb-15 23:00N 27°49' W 097°25'4 0.2
2018-Feb-15 01:32N 27°50' W 097°30'0 0.0
2018-Feb-14 07:54N 27°50' W 097°30'0 0.0
2018-Feb-14 07:30N 27°50' W 097°30'0 0.0
2018-Feb-14 07:00N 27°50' W 097°30'0 0.0
2018-Feb-14 05:15N 27°50' W 097°30'0 0.0
2018-Feb-14 04:21N 27°50' W 097°30'0 0.0
2018-Feb-13 18:42N 27°50' W 097°30'0 0.0
2018-Feb-13 17:18N 27°50' W 097°30'0 0.0
2018-Feb-13 16:54N 27°50' W 097°30'0 0.0
2018-Feb-12 19:07N 27°50' W 097°30'0 0.0
2018-Feb-12 16:52N 27°50' W 097°30'0 0.0
2018-Feb-12 16:22N 27°50' W 097°30'0 0.0
2018-Feb-12 15:53N 27°50' W 097°30'0 0.1
2018-Feb-12 14:39N 27°50' W 097°30'0 0.0
2018-Feb-12 14:30N 27°50' W 097°30'  

Dump ship's entire track history